sensor_id;sensor_type;location;lat;lon;timestamp;pressure;altitude;pressure_sealevel;temperature;humidity
56420;BME280;42323;52.170;7.538;2023-02-13T00:00:24;103386.25;;;6.46;89.61
56420;BME280;42323;52.170;7.538;2023-02-13T00:02:51;103404.78;;;6.57;90.43
56420;BME280;42323;52.170;7.538;2023-02-13T00:05:17;103392.75;;;6.54;89.49
56420;BME280;42323;52.170;7.538;2023-02-13T00:07:44;103400.31;;;6.59;89.53
56420;BME280;42323;52.170;7.538;2023-02-13T00:10:11;103390.97;;;6.55;89.79
56420;BME280;42323;52.170;7.538;2023-02-13T00:12:37;103382.19;;;6.58;90.01
56420;BME280;42323;52.170;7.538;2023-02-13T00:15:04;103383.13;;;6.57;90.06
56420;BME280;42323;52.170;7.538;2023-02-13T00:17:31;103384.63;;;6.61;89.64
56420;BME280;42323;52.170;7.538;2023-02-13T00:19:57;103384.44;;;6.64;89.96
56420;BME280;42323;52.170;7.538;2023-02-13T00:22:24;103379.22;;;6.64;89.95
56420;BME280;42323;52.170;7.538;2023-02-13T00:24:51;103380.16;;;6.63;89.57
56420;BME280;42323;52.170;7.538;2023-02-13T00:27:17;103378.41;;;6.63;89.25
56420;BME280;42323;52.170;7.538;2023-02-13T00:29:44;103374.22;;;6.61;89.58
56420;BME280;42323;52.170;7.538;2023-02-13T00:32:10;103369.84;;;6.61;89.49
56420;BME280;42323;52.170;7.538;2023-02-13T00:34:37;103376.47;;;6.67;89.52
56420;BME280;42323;52.170;7.538;2023-02-13T00:37:03;103359.47;;;6.60;89.42
56420;BME280;42323;52.170;7.538;2023-02-13T00:39:30;103363.94;;;6.58;89.71
56420;BME280;42323;52.170;7.538;2023-02-13T00:41:56;103362.78;;;6.63;89.61
56420;BME280;42323;52.170;7.538;2023-02-13T00:44:23;103380.44;;;6.74;89.24
56420;BME280;42323;52.170;7.538;2023-02-13T00:46:49;103381.28;;;6.74;89.07
56420;BME280;42323;52.170;7.538;2023-02-13T00:49:16;103364.44;;;6.64;89.51
56420;BME280;42323;52.170;7.538;2023-02-13T00:51:42;103379.00;;;6.68;88.80
56420;BME280;42323;52.170;7.538;2023-02-13T00:54:09;103365.38;;;6.63;89.35
56420;BME280;42323;52.170;7.538;2023-02-13T00:56:35;103378.84;;;6.71;89.23
56420;BME280;42323;52.170;7.538;2023-02-13T00:59:03;103391.75;;;6.73;89.30
56420;BME280;42323;52.170;7.538;2023-02-13T01:01:29;103385.66;;;6.74;88.89
56420;BME280;42323;52.170;7.538;2023-02-13T01:03:56;103387.31;;;6.75;89.02
56420;BME280;42323;52.170;7.538;2023-02-13T01:06:23;103382.28;;;6.72;88.86
56420;BME280;42323;52.170;7.538;2023-02-13T01:08:50;103388.25;;;6.74;89.24
56420;BME280;42323;52.170;7.538;2023-02-13T01:11:17;103385.72;;;6.72;89.15
56420;BME280;42323;52.170;7.538;2023-02-13T01:13:44;103389.16;;;6.73;89.40
56420;BME280;42323;52.170;7.538;2023-02-13T01:16:11;103382.28;;;6.72;88.95
56420;BME280;42323;52.170;7.538;2023-02-13T01:18:38;103382.13;;;6.75;89.44
56420;BME280;42323;52.170;7.538;2023-02-13T01:21:08;103380.44;;;6.74;89.28
56420;BME280;42323;52.170;7.538;2023-02-13T01:23:40;103382.19;;;6.73;89.65
56420;BME280;42323;52.170;7.538;2023-02-13T01:26:07;103373.63;;;6.71;89.33
56420;BME280;42323;52.170;7.538;2023-02-13T01:28:36;103371.16;;;6.68;89.43
56420;BME280;42323;52.170;7.538;2023-02-13T01:31:02;103369.66;;;6.64;89.38
56420;BME280;42323;52.170;7.538;2023-02-13T01:33:29;103363.69;;;6.62;89.34
56420;BME280;42323;52.170;7.538;2023-02-13T01:35:55;103361.69;;;6.67;89.67
56420;BME280;42323;52.170;7.538;2023-02-13T01:38:23;103362.53;;;6.68;89.80
56420;BME280;42323;52.170;7.538;2023-02-13T01:40:52;103370.91;;;6.73;88.88
56420;BME280;42323;52.170;7.538;2023-02-13T01:43:19;103348.16;;;6.61;88.76
56420;BME280;42323;52.170;7.538;2023-02-13T01:45:51;103360.69;;;6.70;89.30
56420;BME280;42323;52.170;7.538;2023-02-13T01:48:25;103352.25;;;6.65;88.79
56420;BME280;42323;52.170;7.538;2023-02-13T01:51:04;103353.38;;;6.61;89.19
56420;BME280;42323;52.170;7.538;2023-02-13T01:53:41;103363.69;;;6.62;89.11
56420;BME280;42323;52.170;7.538;2023-02-13T01:56:14;103354.28;;;6.60;89.37
56420;BME280;42323;52.170;7.538;2023-02-13T01:58:43;103336.69;;;6.47;89.36
56420;BME280;42323;52.170;7.538;2023-02-13T02:01:11;103340.41;;;6.43;89.24
56420;BME280;42323;52.170;7.538;2023-02-13T02:03:48;103353.69;;;6.54;89.47
56420;BME280;42323;52.170;7.538;2023-02-13T02:06:22;103347.19;;;6.46;89.55
56420;BME280;42323;52.170;7.538;2023-02-13T02:08:51;103327.84;;;6.34;89.63
56420;BME280;42323;52.170;7.538;2023-02-13T02:11:26;103356.53;;;6.50;90.02
56420;BME280;42323;52.170;7.538;2023-02-13T02:13:55;103359.03;;;6.51;90.67
56420;BME280;42323;52.170;7.538;2023-02-13T02:16:24;103353.19;;;6.48;89.69
56420;BME280;42323;52.170;7.538;2023-02-13T02:18:50;103342.84;;;6.46;89.97
56420;BME280;42323;52.170;7.538;2023-02-13T02:21:52;103340.16;;;6.48;90.43
56420;BME280;42323;52.170;7.538;2023-02-13T02:27:10;103352.69;;;6.57;90.01
56420;BME280;42323;52.170;7.538;2023-02-13T02:35:47;103351.16;;;6.53;90.72
56420;BME280;42323;52.170;7.538;2023-02-13T02:44:56;103345.97;;;6.53;91.16
56420;BME280;42323;52.170;7.538;2023-02-13T02:50:37;103331.56;;;6.46;90.71
56420;BME280;42323;52.170;7.538;2023-02-13T02:53:23;103341.75;;;6.50;90.49
56420;BME280;42323;52.170;7.538;2023-02-13T02:56:15;103338.31;;;6.50;90.69
56420;BME280;42323;52.170;7.538;2023-02-13T02:58:59;103334.19;;;6.46;90.81
56420;BME280;42323;52.170;7.538;2023-02-13T03:01:47;103325.44;;;6.47;90.45
56420;BME280;42323;52.170;7.538;2023-02-13T03:04:42;103332.41;;;6.46;91.58
56420;BME280;42323;52.170;7.538;2023-02-13T03:07:34;103327.44;;;6.42;90.74
56420;BME280;42323;52.170;7.538;2023-02-13T03:10:04;103320.66;;;6.39;91.49
56420;BME280;42323;52.170;7.538;2023-02-13T03:12:53;103323.31;;;6.38;91.16
56420;BME280;42323;52.170;7.538;2023-02-13T03:15:41;103324.16;;;6.38;91.49
56420;BME280;42323;52.170;7.538;2023-02-13T03:18:30;103327.59;;;6.39;91.53
56420;BME280;42323;52.170;7.538;2023-02-13T03:24:18;103339.72;;;6.40;91.15
56420;BME280;42323;52.170;7.538;2023-02-13T03:38:17;103325.00;;;6.39;91.65
56420;BME280;42323;52.170;7.538;2023-02-13T03:40:50;103331.66;;;6.44;91.54
56420;BME280;42323;52.170;7.538;2023-02-13T03:43:44;103329.13;;;6.43;91.34
56420;BME280;42323;52.170;7.538;2023-02-13T03:46:15;103331.72;;;6.43;91.77
56420;BME280;42323;52.170;7.538;2023-02-13T03:48:44;103337.03;;;6.41;91.94
56420;BME280;42323;52.170;7.538;2023-02-13T03:54:00;103281.03;;;6.17;92.05
56420;BME280;42323;52.170;7.538;2023-02-13T03:56:32;103295.34;;;6.25;91.51
56420;BME280;42323;52.170;7.538;2023-02-13T03:59:27;103325.44;;;6.47;91.17
56420;BME280;42323;52.170;7.538;2023-02-13T04:02:09;103311.97;;;6.39;91.80
56420;BME280;42323;52.170;7.538;2023-02-13T04:04:49;103309.63;;;6.34;91.41
56420;BME280;42323;52.170;7.538;2023-02-13T04:07:20;103319.72;;;6.40;91.45
56420;BME280;42323;52.170;7.538;2023-02-13T04:10:05;103337.47;;;6.49;91.39
56420;BME280;42323;52.170;7.538;2023-02-13T04:16:00;103336.69;;;6.47;91.78
56420;BME280;42323;52.170;7.538;2023-02-13T04:18:29;103329.91;;;6.45;91.14
56420;BME280;42323;52.170;7.538;2023-02-13T04:21:02;103340.91;;;6.50;91.73
56420;BME280;42323;52.170;7.538;2023-02-13T04:23:29;103332.59;;;6.43;91.10
56420;BME280;42323;52.170;7.538;2023-02-13T04:25:55;103333.34;;;6.45;90.91
56420;BME280;42323;52.170;7.538;2023-02-13T04:28:23;103333.50;;;6.42;91.87
56420;BME280;42323;52.170;7.538;2023-02-13T04:30:49;103333.34;;;6.45;91.06
56420;BME280;42323;52.170;7.538;2023-02-13T04:33:16;103345.03;;;6.54;91.34
56420;BME280;42323;52.170;7.538;2023-02-13T04:35:43;103329.13;;;6.43;91.55
56420;BME280;42323;52.170;7.538;2023-02-13T04:38:09;103335.00;;;6.46;90.88
56420;BME280;42323;52.170;7.538;2023-02-13T04:40:36;103320.81;;;6.36;91.57
56420;BME280;42323;52.170;7.538;2023-02-13T04:43:02;103334.88;;;6.49;91.54
56420;BME280;42323;52.170;7.538;2023-02-13T04:45:29;103334.88;;;6.49;90.82
56420;BME280;42323;52.170;7.538;2023-02-13T04:47:56;103323.25;;;6.39;91.64
56420;BME280;42323;52.170;7.538;2023-02-13T04:50:23;103335.78;;;6.48;91.66
56420;BME280;42323;52.170;7.538;2023-02-13T04:52:55;103318.13;;;6.38;91.75
56420;BME280;42323;52.170;7.538;2023-02-13T04:55:23;103323.09;;;6.42;91.24
56420;BME280;42323;52.170;7.538;2023-02-13T04:57:55;103318.47;;;6.47;91.52
56420;BME280;42323;52.170;7.538;2023-02-13T05:00:24;103319.47;;;6.45;91.34
56420;BME280;42323;52.170;7.538;2023-02-13T05:02:51;103320.16;;;6.48;91.62
56420;BME280;42323;52.170;7.538;2023-02-13T05:05:19;103327.06;;;6.49;91.67
56420;BME280;42323;52.170;7.538;2023-02-13T05:07:46;103311.25;;;6.37;91.48
56420;BME280;42323;52.170;7.538;2023-02-13T05:10:12;103306.28;;;6.32;91.54
56420;BME280;42323;52.170;7.538;2023-02-13T05:12:39;103304.25;;;6.37;91.09
56420;BME280;42323;52.170;7.538;2023-02-13T05:15:05;103303.53;;;6.35;91.17
56420;BME280;42323;52.170;7.538;2023-02-13T05:17:32;103303.53;;;6.35;91.27
56420;BME280;42323;52.170;7.538;2023-02-13T05:19:58;103295.19;;;6.28;92.14
56420;BME280;42323;52.170;7.538;2023-02-13T05:22:25;103324.59;;;6.46;92.15
56420;BME280;42323;52.170;7.538;2023-02-13T05:25:10;103313.84;;;6.37;91.38
56420;BME280;42323;52.170;7.538;2023-02-13T05:27:37;103326.72;;;6.40;91.74
56420;BME280;42323;52.170;7.538;2023-02-13T05:30:04;103298.47;;;6.32;91.67
56420;BME280;42323;52.170;7.538;2023-02-13T05:32:31;103320.56;;;6.41;91.61
56420;BME280;42323;52.170;7.538;2023-02-13T05:34:57;103317.03;;;6.42;91.35
56420;BME280;42323;52.170;7.538;2023-02-13T05:37:24;103317.88;;;6.42;92.11
56420;BME280;42323;52.170;7.538;2023-02-13T05:39:50;103310.25;;;6.39;91.71
56420;BME280;42323;52.170;7.538;2023-02-13T05:42:17;103300.97;;;6.34;91.34
56420;BME280;42323;52.170;7.538;2023-02-13T05:44:43;103292.56;;;6.28;92.01
56420;BME280;42323;52.170;7.538;2023-02-13T05:47:10;103322.78;;;6.48;91.55
56420;BME280;42323;52.170;7.538;2023-02-13T05:49:39;103309.63;;;6.34;91.28
56420;BME280;42323;52.170;7.538;2023-02-13T05:52:06;103298.03;;;6.24;91.48
56420;BME280;42323;52.170;7.538;2023-02-13T05:54:32;103335.94;;;6.45;91.24
56420;BME280;42323;52.170;7.538;2023-02-13T05:56:58;103322.50;;;6.37;91.28
56420;BME280;42323;52.170;7.538;2023-02-13T05:59:25;103327.59;;;6.39;91.55
56420;BME280;42323;52.170;7.538;2023-02-13T06:01:51;103315.16;;;6.28;92.34
56420;BME280;42323;52.170;7.538;2023-02-13T06:04:18;103331.97;;;6.38;91.75
56420;BME280;42323;52.170;7.538;2023-02-13T06:06:45;103341.41;;;6.41;91.22
56420;BME280;42323;52.170;7.538;2023-02-13T06:09:11;103335.41;;;6.39;91.79
56420;BME280;42323;52.170;7.538;2023-02-13T06:11:38;103332.06;;;6.37;91.77
56420;BME280;42323;52.170;7.538;2023-02-13T06:14:05;103323.66;;;6.32;91.92
56420;BME280;42323;52.170;7.538;2023-02-13T06:16:31;103315.25;;;6.26;92.12
56420;BME280;42323;52.170;7.538;2023-02-13T06:18:58;103331.97;;;6.38;91.37
56420;BME280;42323;52.170;7.538;2023-02-13T06:21:25;103311.88;;;6.24;92.16
56420;BME280;42323;52.170;7.538;2023-02-13T06:23:51;103331.47;;;6.32;91.51
56420;BME280;42323;52.170;7.538;2023-02-13T06:26:18;103334.75;;;6.35;91.66
56420;BME280;42323;52.170;7.538;2023-02-13T06:28:44;103336.00;;;6.28;92.24
56420;BME280;42323;52.170;7.538;2023-02-13T06:31:11;103336.25;;;6.23;91.66
56420;BME280;42323;52.170;7.538;2023-02-13T06:33:38;103324.22;;;6.21;92.03
56420;BME280;42323;52.170;7.538;2023-02-13T06:36:04;103360.63;;;6.38;92.27
56420;BME280;42323;52.170;7.538;2023-02-13T06:38:31;103341.22;;;6.28;91.81
56420;BME280;42323;52.170;7.538;2023-02-13T06:41:02;103360.63;;;6.38;91.80
56420;BME280;42323;52.170;7.538;2023-02-13T06:43:30;103363.22;;;6.38;92.14
56420;BME280;42323;52.170;7.538;2023-02-13T06:45:56;103330.44;;;6.18;92.33
56420;BME280;42323;52.170;7.538;2023-02-13T06:48:23;103334.63;;;6.21;92.31
56420;BME280;42323;52.170;7.538;2023-02-13T06:50:49;103361.69;;;6.34;92.50
56420;BME280;42323;52.170;7.538;2023-02-13T06:53:18;103346.75;;;6.22;92.55
56420;BME280;42323;52.170;7.538;2023-02-13T06:55:51;103351.63;;;6.28;91.66
56420;BME280;42323;52.170;7.538;2023-02-13T06:58:22;103356.69;;;6.31;92.10
56420;BME280;42323;52.170;7.538;2023-02-13T07:00:50;103371.97;;;6.37;92.58
56420;BME280;42323;52.170;7.538;2023-02-13T07:03:17;103365.31;;;6.32;92.60
56420;BME280;42323;52.170;7.538;2023-02-13T07:05:44;103353.28;;;6.29;92.47
56420;BME280;42323;52.170;7.538;2023-02-13T07:08:11;103376.34;;;6.37;92.44
56420;BME280;42323;52.170;7.538;2023-02-13T07:10:39;103368.75;;;6.32;91.88
56420;BME280;42323;52.170;7.538;2023-02-13T07:13:06;103378.84;;;6.38;92.60
56420;BME280;42323;52.170;7.538;2023-02-13T07:15:33;103370.44;;;6.33;92.09
56420;BME280;42323;52.170;7.538;2023-02-13T07:18:00;103350.84;;;6.26;92.22
56420;BME280;42323;52.170;7.538;2023-02-13T07:20:27;103385.66;;;6.41;92.19
56420;BME280;42323;52.170;7.538;2023-02-13T07:23:01;103388.13;;;6.44;92.26
56420;BME280;42323;52.170;7.538;2023-02-13T07:25:28;103385.53;;;6.44;92.60
56420;BME280;42323;52.170;7.538;2023-02-13T07:27:57;103363.56;;;6.32;91.59
56420;BME280;42323;52.170;7.538;2023-02-13T07:30:25;103374.47;;;6.39;92.34
56420;BME280;42323;52.170;7.538;2023-02-13T07:32:52;103390.41;;;6.50;91.87
56420;BME280;42323;52.170;7.538;2023-02-13T07:35:18;103372.56;;;6.42;91.97
56420;BME280;42323;52.170;7.538;2023-02-13T07:37:45;103376.78;;;6.45;92.22
56420;BME280;42323;52.170;7.538;2023-02-13T07:40:12;103384.09;;;6.54;91.28
56420;BME280;42323;52.170;7.538;2023-02-13T07:42:38;103376.38;;;6.52;91.13
56420;BME280;42323;52.170;7.538;2023-02-13T07:45:05;103383.03;;;6.58;91.33
56420;BME280;42323;52.170;7.538;2023-02-13T07:47:33;103388.91;;;6.62;91.29
56420;BME280;42323;52.170;7.538;2023-02-13T07:50:01;103383.59;;;6.63;90.88
56420;BME280;42323;52.170;7.538;2023-02-13T07:52:27;103393.78;;;6.68;91.82
56420;BME280;42323;52.170;7.538;2023-02-13T07:54:54;103392.69;;;6.72;91.38
56420;BME280;42323;52.170;7.538;2023-02-13T07:57:20;103374.63;;;6.69;91.54
56420;BME280;42323;52.170;7.538;2023-02-13T07:59:46;103377.41;;;6.66;90.51
56420;BME280;42323;52.170;7.538;2023-02-13T08:02:14;103386.31;;;6.77;90.19
56420;BME280;42323;52.170;7.538;2023-02-13T08:04:41;103392.19;;;6.81;90.63
56420;BME280;42323;52.170;7.538;2023-02-13T08:07:17;103390.13;;;6.88;90.07
56420;BME280;42323;52.170;7.538;2023-02-13T08:09:44;103381.28;;;6.90;89.94
56420;BME280;42323;52.170;7.538;2023-02-13T08:12:30;103390.59;;;6.94;89.68
56420;BME280;42323;52.170;7.538;2023-02-13T08:14:57;103384.66;;;6.92;89.92
56420;BME280;42323;52.170;7.538;2023-02-13T08:17:24;103385.41;;;6.94;89.70
56420;BME280;42323;52.170;7.538;2023-02-13T08:19:50;103389.19;;;7.04;89.41
56420;BME280;42323;52.170;7.538;2023-02-13T08:22:16;103388.09;;;7.09;89.80
56420;BME280;42323;52.170;7.538;2023-02-13T08:24:43;103361.44;;;7.03;89.25
56420;BME280;42323;52.170;7.538;2023-02-13T08:27:11;103376.59;;;7.13;89.03
56420;BME280;42323;52.170;7.538;2023-02-13T08:29:38;103375.50;;;7.17;89.41
56420;BME280;42323;52.170;7.538;2023-02-13T08:32:05;103381.28;;;7.22;88.71
56420;BME280;42323;52.170;7.538;2023-02-13T08:34:32;103376.66;;;7.27;88.85
56420;BME280;42323;52.170;7.538;2023-02-13T08:36:59;103377.38;;;7.29;88.33
56420;BME280;42323;52.170;7.538;2023-02-13T08:39:26;103377.91;;;7.36;87.80
56420;BME280;42323;52.170;7.538;2023-02-13T08:41:53;103380.59;;;7.34;88.18
56420;BME280;42323;52.170;7.538;2023-02-13T08:44:19;103380.25;;;7.40;87.18
56420;BME280;42323;52.170;7.538;2023-02-13T08:46:45;103379.41;;;7.40;87.94
56420;BME280;42323;52.170;7.538;2023-02-13T08:49:12;103376.63;;;7.43;87.00
56420;BME280;42323;52.170;7.538;2023-02-13T08:51:38;103391.75;;;7.52;87.32
56420;BME280;42323;52.170;7.538;2023-02-13T08:54:05;103392.44;;;7.56;87.50
56420;BME280;42323;52.170;7.538;2023-02-13T08:56:31;103385.34;;;7.58;86.01
56420;BME280;42323;52.170;7.538;2023-02-13T08:58:58;103384.34;;;7.60;85.87
56420;BME280;42323;52.170;7.538;2023-02-13T09:01:24;103388.91;;;7.71;86.36
56420;BME280;42323;52.170;7.538;2023-02-13T09:03:51;103402.38;;;7.79;85.78
56420;BME280;42323;52.170;7.538;2023-02-13T09:06:17;103395.19;;;7.83;85.37
56420;BME280;42323;52.170;7.538;2023-02-13T09:08:44;103394.00;;;7.88;85.77
56420;BME280;42323;52.170;7.538;2023-02-13T09:11:10;103398.78;;;7.96;84.74
56420;BME280;42323;52.170;7.538;2023-02-13T09:13:37;103398.22;;;8.05;83.79
56420;BME280;42323;52.170;7.538;2023-02-13T09:16:05;103393.56;;;8.10;83.29
56420;BME280;42323;52.170;7.538;2023-02-13T09:18:32;103397.41;;;8.19;83.48
56420;BME280;42323;52.170;7.538;2023-02-13T09:21:02;103394.13;;;8.15;82.87
56420;BME280;42323;52.170;7.538;2023-02-13T09:23:35;103399.47;;;8.28;82.81
56420;BME280;42323;52.170;7.538;2023-02-13T09:26:07;103395.06;;;8.28;81.95
56420;BME280;42323;52.170;7.538;2023-02-13T09:28:34;103392.69;;;8.40;82.29
56420;BME280;42323;52.170;7.538;2023-02-13T09:31:06;103397.47;;;8.47;81.57
56420;BME280;42323;52.170;7.538;2023-02-13T09:33:32;103392.78;;;8.52;81.52
56420;BME280;42323;52.170;7.538;2023-02-13T09:36:10;103388.88;;;8.60;81.01
56420;BME280;42323;52.170;7.538;2023-02-13T09:38:40;103396.88;;;8.71;80.13
56420;BME280;42323;52.170;7.538;2023-02-13T09:41:13;103389.78;;;8.73;80.44
56420;BME280;42323;52.170;7.538;2023-02-13T09:43:46;103385.41;;;8.73;80.16
56420;BME280;42323;52.170;7.538;2023-02-13T09:46:18;103394.19;;;8.72;78.99
56420;BME280;42323;52.170;7.538;2023-02-13T09:48:49;103402.56;;;8.77;79.09
56420;BME280;42323;52.170;7.538;2023-02-13T09:51:18;103406.22;;;8.75;78.78
56420;BME280;42323;52.170;7.538;2023-02-13T09:54:06;103401.56;;;8.66;78.79
56420;BME280;42323;52.170;7.538;2023-02-13T09:56:40;103406.06;;;8.64;79.45
56420;BME280;42323;52.170;7.538;2023-02-13T09:59:32;103416.84;;;8.72;79.47
56420;BME280;42323;52.170;7.538;2023-02-13T10:02:39;103406.88;;;8.64;79.28
56420;BME280;42323;52.170;7.538;2023-02-13T10:08:51;103404.25;;;8.78;78.48
56420;BME280;42323;52.170;7.538;2023-02-13T10:11:49;103420.84;;;8.92;78.14
56420;BME280;42323;52.170;7.538;2023-02-13T10:14:19;103412.28;;;8.90;77.86
56420;BME280;42323;52.170;7.538;2023-02-13T10:16:59;103366.28;;;8.59;77.66
56420;BME280;42323;52.170;7.538;2023-02-13T10:22:43;103421.78;;;8.91;76.55
56420;BME280;42323;52.170;7.538;2023-02-13T10:25:16;103415.06;;;8.87;75.90
56420;BME280;42323;52.170;7.538;2023-02-13T10:27:49;103410.84;;;8.84;75.37
56420;BME280;42323;52.170;7.538;2023-02-13T10:30:31;103420.66;;;8.95;75.59
56420;BME280;42323;52.170;7.538;2023-02-13T10:33:11;103421.31;;;8.98;74.75
56420;BME280;42323;52.170;7.538;2023-02-13T10:35:52;103417.28;;;9.07;75.32
56420;BME280;42323;52.170;7.538;2023-02-13T10:38:22;103418.56;;;9.14;74.87
56420;BME280;42323;52.170;7.538;2023-02-13T10:41:05;103411.53;;;9.15;74.36
56420;BME280;42323;52.170;7.538;2023-02-13T10:46:21;103407.78;;;9.19;74.41
56420;BME280;42323;52.170;7.538;2023-02-13T10:51:34;103383.53;;;9.17;72.74
56420;BME280;42323;52.170;7.538;2023-02-13T10:54:21;103379.47;;;9.25;73.11
56420;BME280;42323;52.170;7.538;2023-02-13T10:57:08;103390.06;;;9.37;73.44
56420;BME280;42323;52.170;7.538;2023-02-13T10:59:46;103397.66;;;9.54;73.15
56420;BME280;42323;52.170;7.538;2023-02-13T11:02:22;103397.38;;;9.71;72.02
56420;BME280;42323;52.170;7.538;2023-02-13T11:04:58;103400.91;;;9.85;71.80
56420;BME280;42323;52.170;7.538;2023-02-13T11:07:25;103385.47;;;9.93;71.17
56420;BME280;42323;52.170;7.538;2023-02-13T11:09:57;103382.69;;;10.09;70.66
56420;BME280;42323;52.170;7.538;2023-02-13T11:12:28;103379.88;;;10.24;69.16
56420;BME280;42323;52.170;7.538;2023-02-13T11:15:02;103376.50;;;10.48;68.56
56420;BME280;42323;52.170;7.538;2023-02-13T11:17:32;103386.25;;;10.59;67.78
56420;BME280;42323;52.170;7.538;2023-02-13T11:20:06;103381.84;;;10.59;67.50
56420;BME280;42323;52.170;7.538;2023-02-13T11:22:38;103381.34;;;10.41;67.38
56420;BME280;42323;52.170;7.538;2023-02-13T11:25:22;103375.47;;;10.25;67.11
56420;BME280;42323;52.170;7.538;2023-02-13T11:30:52;103368.75;;;10.08;68.59
56420;BME280;42323;52.170;7.538;2023-02-13T11:33:26;103370.13;;;10.26;68.36
56420;BME280;42323;52.170;7.538;2023-02-13T11:36:08;103366.81;;;10.61;67.61
56420;BME280;42323;52.170;7.538;2023-02-13T11:38:35;103349.19;;;13.37;59.93
56420;BME280;42323;52.170;7.538;2023-02-13T11:41:06;103365.75;;;14.42;55.64
56420;BME280;42323;52.170;7.538;2023-02-13T11:43:49;103356.53;;;13.75;56.88
56420;BME280;42323;52.170;7.538;2023-02-13T11:46:22;103351.91;;;13.26;57.49
56420;BME280;42323;52.170;7.538;2023-02-13T11:49:05;103351.00;;;13.58;57.29
56420;BME280;42323;52.170;7.538;2023-02-13T11:51:45;103336.03;;;16.33;50.26
56420;BME280;42323;52.170;7.538;2023-02-13T11:54:22;103338.78;;;17.92;46.00
56420;BME280;42323;52.170;7.538;2023-02-13T11:56:55;103335.25;;;18.68;43.32
56420;BME280;42323;52.170;7.538;2023-02-13T11:59:38;103327.53;;;19.23;42.75
56420;BME280;42323;52.170;7.538;2023-02-13T12:04:37;103327.00;;;19.44;40.65
56420;BME280;42323;52.170;7.538;2023-02-13T12:07:14;103329.31;;;17.37;45.22
56420;BME280;42323;52.170;7.538;2023-02-13T12:09:43;103328.25;;;17.56;44.91
56420;BME280;42323;52.170;7.538;2023-02-13T12:12:17;103330.75;;;17.32;45.83
56420;BME280;42323;52.170;7.538;2023-02-13T12:14:45;103316.41;;;18.87;42.60
56420;BME280;42323;52.170;7.538;2023-02-13T12:17:19;103321.06;;;19.26;41.57
56420;BME280;42323;52.170;7.538;2023-02-13T12:19:58;103314.66;;;20.23;39.48
56420;BME280;42323;52.170;7.538;2023-02-13T12:27:44;103304.34;;;21.73;35.71
56420;BME280;42323;52.170;7.538;2023-02-13T12:54:38;103276.16;;;23.28;32.11
56420;BME280;42323;52.170;7.538;2023-02-13T12:57:21;103281.69;;;23.27;32.48
56420;BME280;42323;52.170;7.538;2023-02-13T13:02:57;103270.91;;;23.14;32.13
56420;BME280;42323;52.170;7.538;2023-02-13T13:14:22;103258.34;;;23.42;31.74
56420;BME280;42323;52.170;7.538;2023-02-13T13:16:54;103256.03;;;23.39;31.45
56420;BME280;42323;52.170;7.538;2023-02-13T13:25:32;103254.50;;;23.93;31.22
56420;BME280;42323;52.170;7.538;2023-02-13T13:28:04;103244.84;;;24.12;31.20
56420;BME280;42323;52.170;7.538;2023-02-13T13:30:36;103240.94;;;24.21;30.31
56420;BME280;42323;52.170;7.538;2023-02-13T13:33:18;103237.66;;;24.19;30.76
56420;BME280;42323;52.170;7.538;2023-02-13T13:36:00;103241.38;;;24.24;30.44
56420;BME280;42323;52.170;7.538;2023-02-13T13:38:38;103232.88;;;24.08;30.21
56420;BME280;42323;52.170;7.538;2023-02-13T13:41:14;103232.47;;;24.04;30.88
56420;BME280;42323;52.170;7.538;2023-02-13T13:46:50;103220.00;;;24.44;30.13
56420;BME280;42323;52.170;7.538;2023-02-13T13:54:53;103222.25;;;24.67;30.01
56420;BME280;42323;52.170;7.538;2023-02-13T13:57:27;103217.53;;;24.49;29.67
56420;BME280;42323;52.170;7.538;2023-02-13T14:02:44;103233.53;;;24.16;30.10
56420;BME280;42323;52.170;7.538;2023-02-13T14:07:48;103226.13;;;24.18;30.18
56420;BME280;42323;52.170;7.538;2023-02-13T14:20:42;103211.13;;;24.44;30.06
56420;BME280;42323;52.170;7.538;2023-02-13T14:25:42;103198.34;;;24.59;29.87
56420;BME280;42323;52.170;7.538;2023-02-13T14:28:22;103206.59;;;24.58;29.88
56420;BME280;42323;52.170;7.538;2023-02-13T14:30:52;103209.47;;;24.49;29.53
56420;BME280;42323;52.170;7.538;2023-02-13T14:33:30;103207.41;;;24.58;29.62
56420;BME280;42323;52.170;7.538;2023-02-13T14:36:05;103184.09;;;24.39;29.93
56420;BME280;42323;52.170;7.538;2023-02-13T14:38:33;103197.00;;;24.09;29.70
56420;BME280;42323;52.170;7.538;2023-02-13T14:41:00;103196.75;;;23.77;30.59
56420;BME280;42323;52.170;7.538;2023-02-13T14:43:34;103195.50;;;23.73;30.62
56420;BME280;42323;52.170;7.538;2023-02-13T14:48:45;103187.44;;;23.66;31.04
56420;BME280;42323;52.170;7.538;2023-02-13T14:51:54;103193.72;;;23.52;31.61
56420;BME280;42323;52.170;7.538;2023-02-13T14:57:05;103182.75;;;23.34;31.91
56420;BME280;42323;52.170;7.538;2023-02-13T14:59:35;103176.22;;;23.49;32.06
56420;BME280;42323;52.170;7.538;2023-02-13T15:02:16;103172.94;;;23.54;31.76
56420;BME280;42323;52.170;7.538;2023-02-13T15:04:46;103166.97;;;23.52;31.55
56420;BME280;42323;52.170;7.538;2023-02-13T15:07:17;103169.63;;;23.45;31.75
56420;BME280;42323;52.170;7.538;2023-02-13T15:09:50;103173.03;;;23.26;31.76
56420;BME280;42323;52.170;7.538;2023-02-13T15:14:54;103162.22;;;23.06;32.24
56420;BME280;42323;52.170;7.538;2023-02-13T15:17:23;103170.03;;;23.08;32.77
56420;BME280;42323;52.170;7.538;2023-02-13T15:19:53;103179.84;;;22.94;32.78
56420;BME280;42323;52.170;7.538;2023-02-13T15:22:31;103173.72;;;22.78;32.77
56420;BME280;42323;52.170;7.538;2023-02-13T15:24:58;103165.44;;;22.02;34.24
56420;BME280;42323;52.170;7.538;2023-02-13T15:27:31;103169.06;;;21.44;35.45
56420;BME280;42323;52.170;7.538;2023-02-13T15:30:04;103158.34;;;20.70;36.52
56420;BME280;42323;52.170;7.538;2023-02-13T15:32:43;103163.56;;;19.63;38.19
56420;BME280;42323;52.170;7.538;2023-02-13T15:35:27;103171.56;;;18.50;41.34
56420;BME280;42323;52.170;7.538;2023-02-13T15:37:54;103175.34;;;17.65;43.25